createdAt,value
2022-09-07T00:00:58.180Z,51.42
2022-09-07T00:03:02.369Z,51.83
2022-09-07T00:05:06.081Z,55.20
2022-09-07T00:07:09.643Z,56.56
2022-09-07T00:09:13.624Z,56.45
2022-09-07T00:11:18.877Z,54.44
2022-09-07T00:13:22.713Z,55.21
2022-09-07T00:15:28.908Z,53.71
2022-09-07T00:17:32.636Z,53.09
2022-09-07T00:19:36.469Z,54.42
2022-09-07T00:21:40.283Z,53.94
2022-09-07T00:23:43.944Z,53.42
2022-09-07T00:25:50.099Z,53.18
2022-09-07T00:27:57.153Z,49.46
2022-09-07T00:30:03.089Z,51.19
2022-09-07T00:32:06.722Z,51.13
2022-09-07T00:34:11.001Z,51.25
2022-09-07T00:36:15.095Z,49.79
2022-09-07T00:38:18.703Z,50.21
2022-09-07T00:40:22.215Z,50.52
2022-09-07T00:42:26.140Z,51.55
2022-09-07T00:44:45.850Z,52.90
2022-09-07T00:46:49.967Z,51.08
2022-09-07T00:49:10.073Z,52.96
2022-09-07T00:51:16.760Z,52.72
2022-09-07T00:53:29.300Z,53.92
2022-09-07T00:55:33.803Z,54.67
2022-09-07T00:57:38.896Z,55.57
2022-09-07T00:59:45.123Z,56.24
2022-09-07T01:01:49.189Z,58.71
2022-09-07T01:03:53.905Z,60.81
2022-09-07T01:06:07.233Z,62.86
2022-09-07T01:08:11.377Z,63.78
2022-09-07T01:10:15.508Z,64.26
2022-09-07T01:12:19.317Z,66.43
2022-09-07T01:14:25.440Z,69.01
2022-09-07T01:16:35.646Z,71.41
2022-09-07T01:18:55.961Z,70.60
2022-09-07T01:21:02.645Z,73.42
2022-09-07T01:23:25.465Z,75.71
2022-09-07T01:25:47.786Z,78.83
2022-09-07T01:28:09.897Z,76.85
2022-09-07T01:30:14.701Z,75.69
2022-09-07T01:32:18.652Z,76.49
2022-09-07T01:34:23.934Z,78.06
2022-09-07T01:36:36.748Z,79.36
2022-09-07T01:38:40.271Z,81.07
2022-09-07T01:40:54.616Z,82.83
2022-09-07T01:43:08.446Z,83.82
2022-09-07T01:45:13.972Z,85.41
2022-09-07T01:47:24.449Z,86.72
2022-09-07T01:49:32.289Z,86.87
2022-09-07T01:51:40.271Z,90.74
2022-09-07T01:53:52.323Z,86.85
2022-09-07T01:56:00.517Z,83.39
2022-09-07T01:58:13.262Z,82.11
2022-09-07T02:00:20.701Z,81.20
2022-09-07T02:02:32.209Z,81.52
2022-09-07T02:04:55.901Z,80.99
2022-09-07T02:07:22.197Z,83.61
2022-09-07T02:09:38.955Z,83.83
2022-09-07T02:11:48.547Z,84.36
2022-09-07T02:13:55.125Z,85.56
2022-09-07T02:16:05.533Z,86.58
2022-09-07T02:18:10.608Z,83.39
2022-09-07T02:20:27.627Z,86.10
2022-09-07T02:22:33.359Z,83.89
2022-09-07T02:24:44.771Z,89.63
2022-09-07T02:26:51.025Z,90.54
2022-09-07T02:28:54.834Z,94.06
2022-09-07T02:31:02.018Z,93.92
2022-09-07T02:33:05.985Z,94.74
2022-09-07T02:35:09.900Z,94.63
2022-09-07T02:37:17.284Z,95.81
2022-09-07T02:39:22.222Z,95.50
2022-09-07T02:41:32.195Z,97.64
2022-09-07T02:43:36.764Z,99.23
2022-09-07T02:46:04.130Z,99.38
2022-09-07T02:48:08.286Z,99.60
2022-09-07T02:50:37.457Z,100.00
2022-09-07T02:52:40.787Z,100.00
2022-09-07T02:54:50.123Z,100.00
2022-09-07T02:57:12.170Z,100.00
2022-09-07T02:59:30.623Z,100.00
2022-09-07T03:01:57.541Z,100.00
2022-09-07T03:04:09.579Z,100.00
2022-09-07T03:06:39.377Z,100.00
2022-09-07T03:08:46.749Z,100.00
2022-09-07T03:10:51.315Z,100.00
2022-09-07T03:12:55.209Z,100.00
2022-09-07T03:14:58.900Z,100.00
2022-09-07T03:17:03.558Z,100.00
2022-09-07T03:19:07.348Z,100.00
2022-09-07T03:21:11.421Z,100.00
2022-09-07T03:23:15.208Z,100.00
2022-09-07T03:25:18.905Z,100.00
2022-09-07T03:27:22.616Z,100.00
2022-09-07T03:29:26.212Z,100.00
2022-09-07T03:31:30.294Z,100.00
2022-09-07T03:33:33.652Z,100.00
2022-09-07T03:35:37.226Z,100.00
2022-09-07T03:37:40.898Z,100.00
2022-09-07T03:39:44.734Z,100.00
2022-09-07T03:41:48.812Z,100.00
2022-09-07T03:43:52.772Z,100.00
2022-09-07T03:46:03.554Z,100.00
2022-09-07T03:48:07.492Z,100.00
2022-09-07T03:50:11.399Z,100.00
2022-09-07T03:52:15.360Z,100.00
2022-09-07T03:54:18.856Z,100.00
2022-09-07T03:56:23.501Z,100.00
2022-09-07T03:58:27.182Z,100.00
2022-09-07T04:00:31.055Z,100.00
2022-09-07T04:02:34.715Z,100.00
2022-09-07T04:04:38.730Z,100.00
2022-09-07T04:06:44.681Z,100.00
2022-09-07T04:08:48.901Z,100.00
2022-09-07T04:10:52.579Z,100.00
2022-09-07T04:12:56.436Z,100.00
2022-09-07T04:15:02.910Z,100.00
2022-09-07T04:17:07.036Z,100.00
2022-09-07T04:19:11.012Z,100.00
2022-09-07T04:21:15.327Z,100.00
2022-09-07T04:23:19.917Z,100.00
2022-09-07T04:25:24.383Z,100.00
2022-09-07T04:27:28.823Z,100.00
2022-09-07T04:29:32.545Z,100.00
2022-09-07T04:31:36.785Z,100.00
2022-09-07T04:33:43.671Z,100.00
2022-09-07T04:35:47.184Z,100.00
2022-09-07T04:37:50.660Z,100.00
2022-09-07T04:39:54.746Z,100.00
2022-09-07T04:41:58.671Z,100.00
2022-09-07T04:44:05.562Z,100.00
2022-09-07T04:46:12.545Z,100.00
2022-09-07T04:48:16.174Z,100.00
2022-09-07T04:50:20.382Z,100.00
2022-09-07T04:52:26.682Z,100.00
2022-09-07T04:54:30.970Z,100.00
2022-09-07T04:56:34.820Z,100.00
2022-09-07T04:58:38.683Z,100.00
2022-09-07T05:00:42.219Z,100.00
2022-09-07T05:02:46.099Z,100.00
2022-09-07T05:04:49.705Z,100.00
2022-09-07T05:06:56.967Z,100.00
2022-09-07T05:09:01.253Z,100.00
2022-09-07T05:11:05.372Z,100.00
2022-09-07T05:13:09.064Z,100.00
2022-09-07T05:15:12.948Z,100.00
2022-09-07T05:17:17.163Z,100.00
2022-09-07T05:19:20.754Z,100.00
2022-09-07T05:21:26.310Z,100.00
2022-09-07T05:23:29.936Z,100.00
2022-09-07T05:25:34.133Z,100.00
2022-09-07T05:27:37.724Z,100.00
2022-09-07T05:32:05.058Z,100.00
2022-09-07T05:36:34.353Z,100.00
2022-09-07T05:38:38.298Z,100.00
2022-09-07T05:40:42.042Z,100.00
2022-09-07T05:42:45.895Z,100.00
2022-09-07T05:44:49.552Z,100.00
2022-09-07T05:46:53.921Z,100.00
2022-09-07T05:49:01.718Z,100.00
2022-09-07T05:51:06.621Z,100.00
2022-09-07T05:53:10.464Z,100.00
2022-09-07T05:55:29.394Z,100.00
2022-09-07T05:57:34.217Z,100.00
2022-09-07T05:59:38.118Z,100.00
2022-09-07T06:01:42.243Z,100.00
2022-09-07T06:03:46.920Z,100.00
2022-09-07T06:05:53.745Z,100.00
2022-09-07T06:07:57.628Z,100.00
2022-09-07T06:12:25.304Z,100.00
2022-09-07T06:14:28.854Z,100.00
2022-09-07T06:16:34.682Z,100.00
2022-09-07T06:18:42.272Z,100.00
2022-09-07T06:20:45.780Z,100.00
2022-09-07T06:22:49.470Z,100.00
2022-09-07T06:24:53.245Z,100.00
2022-09-07T06:26:57.224Z,100.00
2022-09-07T06:29:00.955Z,100.00
2022-09-07T06:31:05.937Z,100.00
2022-09-07T06:33:09.438Z,100.00
2022-09-07T06:35:13.373Z,100.00
2022-09-07T06:37:19.884Z,100.00
2022-09-07T06:39:24.056Z,100.00
2022-09-07T06:43:58.314Z,100.00
2022-09-07T06:48:26.904Z,100.00
2022-09-07T06:50:30.696Z,100.00
2022-09-07T06:55:00.827Z,100.00
2022-09-07T06:57:09.981Z,100.00
2022-09-07T06:59:14.066Z,100.00
2022-09-07T07:01:24.967Z,100.00
2022-09-07T07:03:29.920Z,100.00
2022-09-07T07:05:33.744Z,100.00
2022-09-07T07:07:37.321Z,100.00
2022-09-07T07:09:42.174Z,100.00
2022-09-07T07:11:48.478Z,100.00
2022-09-07T07:13:52.552Z,100.00
2022-09-07T07:16:10.730Z,100.00
2022-09-07T07:18:21.203Z,100.00
2022-09-07T07:20:25.250Z,100.00
2022-09-07T07:22:46.127Z,100.00
2022-09-07T07:24:53.374Z,100.00
2022-09-07T07:26:57.379Z,100.00
2022-09-07T07:29:02.801Z,100.00
2022-09-07T07:31:11.256Z,100.00
2022-09-07T07:33:17.244Z,100.00
2022-09-07T07:35:21.159Z,100.00
2022-09-07T07:37:28.066Z,100.00
2022-09-07T07:41:57.667Z,100.00
2022-09-07T07:44:04.607Z,100.00
2022-09-07T07:46:08.990Z,100.00
2022-09-07T07:48:13.090Z,100.00
2022-09-07T07:50:33.353Z,100.00
2022-09-07T07:55:42.967Z,100.00
2022-09-07T07:57:27.276Z,100.00
2022-09-07T07:59:31.090Z,100.00
2022-09-07T08:01:38.079Z,100.00
2022-09-07T08:03:42.855Z,100.00
2022-09-07T08:05:46.497Z,100.00
2022-09-07T08:07:50.311Z,100.00
2022-09-07T08:09:53.916Z,100.00
2022-09-07T08:11:58.120Z,100.00
2022-09-07T08:14:03.363Z,100.00
2022-09-07T08:16:06.992Z,100.00
2022-09-07T08:18:10.694Z,100.00
2022-09-07T08:20:17.190Z,100.00
2022-09-07T08:22:20.727Z,100.00
2022-09-07T08:24:24.572Z,100.00
2022-09-07T08:26:30.103Z,100.00
2022-09-07T08:28:34.673Z,100.00
2022-09-07T08:30:41.434Z,100.00
2022-09-07T08:32:45.492Z,100.00
2022-09-07T08:34:49.085Z,100.00
2022-09-07T08:36:52.711Z,100.00
2022-09-07T08:38:56.565Z,100.00
2022-09-07T08:41:01.552Z,100.00
2022-09-07T08:43:05.148Z,100.00
2022-09-07T08:45:16.001Z,100.00
2022-09-07T08:47:29.446Z,100.00
2022-09-07T08:49:45.516Z,100.00
2022-09-07T08:51:54.909Z,100.00
2022-09-07T08:53:59.146Z,100.00
2022-09-07T08:56:07.230Z,100.00
2022-09-07T08:58:27.003Z,100.00
2022-09-07T09:00:40.455Z,100.00
2022-09-07T09:03:28.554Z,100.00
2022-09-07T09:05:32.073Z,100.00
2022-09-07T09:07:36.006Z,100.00
2022-09-07T09:09:39.747Z,100.00
2022-09-07T09:12:01.719Z,100.00
2022-09-07T09:14:23.623Z,100.00
2022-09-07T09:16:44.771Z,100.00
2022-09-07T09:18:51.540Z,100.00
2022-09-07T09:21:03.188Z,100.00
2022-09-07T09:23:13.345Z,100.00
2022-09-07T09:25:22.347Z,100.00
2022-09-07T09:27:26.057Z,100.00
2022-09-07T09:29:30.058Z,100.00
2022-09-07T09:31:37.118Z,100.00
2022-09-07T09:33:40.614Z,100.00
2022-09-07T09:35:45.745Z,100.00
2022-09-07T09:37:49.360Z,100.00
2022-09-07T09:40:02.748Z,100.00
2022-09-07T09:42:17.586Z,100.00
2022-09-07T09:44:23.180Z,100.00
2022-09-07T09:46:32.489Z,100.00
2022-09-07T09:48:46.248Z,100.00
2022-09-07T09:53:35.601Z,100.00
2022-09-07T09:55:42.307Z,100.00
2022-09-07T10:00:27.893Z,100.00
2022-09-07T10:05:01.012Z,100.00
2022-09-07T10:07:27.425Z,100.00
2022-09-07T10:09:37.972Z,100.00
2022-09-07T10:14:20.150Z,100.00
2022-09-07T10:16:38.824Z,100.00
2022-09-07T10:18:55.002Z,100.00
2022-09-07T10:21:13.072Z,100.00
2022-09-07T10:23:24.742Z,100.00
2022-09-07T10:25:37.837Z,100.00
2022-09-07T10:27:42.174Z,100.00
2022-09-07T10:29:45.796Z,100.00
2022-09-07T10:31:51.614Z,100.00
2022-09-07T10:34:26.738Z,100.00
2022-09-07T10:36:30.413Z,100.00
2022-09-07T10:38:39.125Z,100.00
2022-09-07T10:41:02.748Z,100.00
2022-09-07T10:43:24.590Z,100.00
2022-09-07T10:45:31.480Z,100.00
2022-09-07T10:47:44.756Z,100.00
2022-09-07T10:52:27.491Z,100.00
2022-09-07T10:54:51.202Z,100.00
2022-09-07T10:57:23.502Z,100.00
2022-09-07T11:01:57.017Z,100.00
2022-09-07T11:04:06.846Z,100.00
2022-09-07T11:06:24.042Z,100.00
2022-09-07T11:14:11.913Z,100.00
2022-09-07T11:18:47.165Z,100.00
2022-09-07T11:20:56.388Z,100.00
2022-09-07T11:23:18.444Z,100.00
2022-09-07T11:25:29.557Z,100.00
2022-09-07T11:27:46.860Z,100.00
2022-09-07T11:29:52.100Z,100.00
2022-09-07T11:31:58.457Z,100.00
2022-09-07T11:36:34.727Z,100.00
2022-09-07T11:38:45.326Z,100.00
2022-09-07T11:41:08.889Z,100.00
2022-09-07T11:43:24.450Z,100.00
2022-09-07T11:45:41.806Z,100.00
2022-09-07T11:48:11.789Z,100.00
2022-09-07T11:50:20.615Z,100.00
2022-09-07T11:52:36.924Z,100.00
2022-09-07T11:54:46.829Z,100.00
2022-09-07T11:56:55.002Z,100.00
2022-09-07T11:59:16.717Z,100.00
2022-09-07T12:01:40.294Z,100.00
2022-09-07T12:04:03.593Z,100.00
2022-09-07T12:06:24.695Z,100.00
2022-09-07T12:08:44.858Z,100.00
2022-09-07T12:10:51.403Z,100.00
2022-09-07T12:12:54.839Z,100.00
2022-09-07T12:15:01.720Z,100.00
2022-09-07T12:17:24.875Z,100.00
2022-09-07T12:19:29.340Z,100.00
2022-09-07T12:21:35.919Z,100.00
2022-09-07T12:23:46.972Z,100.00
2022-09-07T12:25:51.702Z,100.00
2022-09-07T12:27:55.747Z,100.00
2022-09-07T12:29:59.090Z,100.00
2022-09-07T12:32:53.384Z,100.00
2022-09-07T12:34:32.965Z,100.00
2022-09-07T12:36:36.756Z,100.00
2022-09-07T12:39:00.429Z,100.00
2022-09-07T12:41:05.169Z,100.00
2022-09-07T12:43:14.894Z,100.00
2022-09-07T12:45:30.989Z,100.00
2022-09-07T12:47:37.802Z,100.00
2022-09-07T12:49:56.552Z,100.00
2022-09-07T12:52:11.578Z,100.00
2022-09-07T12:54:32.823Z,100.00
2022-09-07T12:56:45.413Z,100.00
2022-09-07T12:58:52.068Z,100.00
2022-09-07T13:01:05.596Z,100.00
2022-09-07T13:06:00.639Z,100.00
2022-09-07T13:08:22.445Z,100.00
2022-09-07T13:10:31.749Z,100.00
2022-09-07T13:12:55.306Z,100.00
2022-09-07T13:15:03.619Z,100.00
2022-09-07T13:17:29.116Z,100.00
2022-09-07T13:19:48.566Z,100.00
2022-09-07T13:21:53.650Z,100.00
2022-09-07T13:27:01.435Z,100.00
2022-09-07T13:29:05.746Z,100.00
2022-09-07T13:31:14.089Z,100.00
2022-09-07T13:33:27.115Z,100.00
2022-09-07T13:35:31.173Z,100.00
2022-09-07T13:38:03.118Z,100.00
2022-09-07T13:40:10.642Z,100.00
2022-09-07T13:42:21.926Z,100.00
2022-09-07T13:44:28.593Z,100.00
2022-09-07T13:46:41.901Z,100.00
2022-09-07T13:48:53.836Z,100.00
2022-09-07T13:51:15.787Z,100.00
2022-09-07T13:53:29.201Z,100.00
2022-09-07T13:55:41.720Z,100.00
2022-09-07T13:57:51.837Z,100.00
2022-09-07T13:59:56.961Z,100.00
2022-09-07T14:02:01.076Z,100.00
2022-09-07T14:04:10.332Z,100.00
2022-09-07T14:06:34.109Z,100.00
2022-09-07T14:08:41.971Z,100.00
2022-09-07T14:10:49.914Z,100.00
2022-09-07T14:12:54.972Z,100.00
2022-09-07T14:15:16.982Z,100.00
2022-09-07T14:17:21.070Z,100.00
2022-09-07T14:19:42.447Z,100.00
2022-09-07T14:21:54.422Z,100.00
2022-09-07T14:23:59.260Z,100.00
2022-09-07T14:26:16.324Z,100.00
2022-09-07T14:28:31.086Z,100.00
2022-09-07T14:30:35.125Z,100.00
2022-09-07T14:32:39.032Z,100.00
2022-09-07T14:34:44.191Z,100.00
2022-09-07T14:36:48.503Z,100.00
2022-09-07T14:39:07.238Z,100.00
2022-09-07T14:41:13.036Z,100.00
2022-09-07T14:43:27.874Z,100.00
2022-09-07T14:45:33.375Z,100.00
2022-09-07T14:47:41.685Z,100.00
2022-09-07T14:49:50.344Z,100.00
2022-09-07T14:51:55.125Z,100.00
2022-09-07T14:54:02.226Z,100.00
2022-09-07T14:56:11.965Z,100.00
2022-09-07T14:58:15.635Z,100.00
2022-09-07T15:00:31.880Z,100.00
2022-09-07T15:02:36.978Z,100.00
2022-09-07T15:04:40.881Z,100.00
2022-09-07T15:07:03.307Z,100.00
2022-09-07T15:09:08.508Z,100.00
2022-09-07T15:13:41.684Z,100.00
2022-09-07T15:15:47.651Z,100.00
2022-09-07T15:17:51.582Z,100.00
2022-09-07T15:19:55.195Z,100.00
2022-09-07T15:21:58.848Z,100.00
2022-09-07T15:24:02.913Z,100.00
2022-09-07T15:26:07.435Z,100.00
2022-09-07T15:33:21.948Z,100.00
2022-09-07T15:35:25.740Z,100.00
2022-09-07T15:39:53.928Z,100.00
2022-09-07T15:41:58.169Z,100.00
2022-09-07T15:44:05.091Z,100.00
2022-09-07T15:46:08.834Z,100.00
2022-09-07T15:48:17.154Z,100.00
2022-09-07T15:50:23.661Z,100.00
2022-09-07T15:52:27.390Z,100.00
2022-09-07T15:54:34.189Z,100.00
2022-09-07T15:56:39.523Z,100.00
2022-09-07T15:58:44.708Z,100.00
2022-09-07T16:00:48.893Z,100.00
2022-09-07T16:03:08.810Z,100.00
2022-09-07T16:05:12.997Z,100.00
2022-09-07T16:07:16.560Z,100.00
2022-09-07T16:09:21.782Z,100.00
2022-09-07T16:11:27.328Z,100.00
2022-09-07T16:13:31.455Z,100.00
2022-09-07T16:15:38.462Z,100.00
2022-09-07T16:17:47.836Z,100.00
2022-09-07T16:19:52.565Z,100.00
2022-09-07T16:21:57.507Z,100.00
2022-09-07T16:24:01.611Z,100.00
2022-09-07T16:26:06.432Z,100.00
2022-09-07T16:28:10.506Z,100.00
2022-09-07T16:30:14.494Z,100.00
2022-09-07T16:34:41.984Z,100.00
2022-09-07T16:36:45.687Z,100.00
2022-09-07T16:38:51.748Z,100.00
2022-09-07T16:40:56.358Z,100.00
2022-09-07T16:43:00.056Z,100.00
2022-09-07T16:47:30.249Z,100.00
2022-09-07T16:49:34.088Z,100.00
2022-09-07T16:51:39.731Z,100.00
2022-09-07T16:53:44.166Z,99.82
2022-09-07T16:55:47.899Z,95.59
2022-09-07T17:00:16.296Z,97.72
2022-09-07T17:02:22.779Z,100.00
2022-09-07T17:04:26.600Z,98.77
2022-09-07T17:06:31.948Z,99.79
2022-09-07T17:08:36.458Z,99.79
2022-09-07T17:10:40.055Z,100.00
2022-09-07T17:12:43.923Z,96.59
2022-09-07T17:14:49.283Z,97.00
2022-09-07T17:16:53.286Z,93.49
2022-09-07T17:21:22.954Z,91.69
2022-09-07T17:23:26.679Z,91.18
2022-09-07T17:25:33.145Z,95.23
2022-09-07T17:27:37.124Z,86.62
2022-09-07T17:29:41.453Z,86.21
2022-09-07T17:34:09.345Z,85.22
2022-09-07T17:36:14.239Z,83.24
2022-09-07T17:40:42.622Z,77.21
2022-09-07T17:45:10.652Z,80.21
2022-09-07T17:47:15.604Z,79.57
2022-09-07T17:49:19.735Z,80.74
2022-09-07T17:51:24.105Z,75.27
2022-09-07T17:53:28.312Z,77.74
2022-09-07T17:55:34.688Z,82.51
2022-09-07T17:57:38.418Z,81.67
2022-09-07T18:02:14.893Z,79.37
2022-09-07T18:04:18.877Z,83.42
2022-09-07T18:06:22.764Z,80.43
2022-09-07T18:08:26.298Z,82.62
2022-09-07T18:11:44.910Z,86.48
2022-09-07T18:12:55.262Z,79.08
2022-09-07T18:14:59.131Z,78.05
2022-09-07T18:17:02.759Z,78.96
2022-09-07T18:19:10.306Z,77.42
2022-09-07T18:21:15.708Z,79.26
2022-09-07T18:23:19.621Z,79.10
2022-09-07T18:25:23.134Z,78.87
2022-09-07T18:27:27.967Z,79.71
2022-09-07T18:29:33.909Z,80.10
2022-09-07T18:31:38.242Z,80.29
2022-09-07T18:33:42.657Z,81.95
2022-09-07T18:35:47.842Z,78.17
2022-09-07T18:37:51.884Z,76.72
2022-09-07T18:39:55.384Z,73.30
2022-09-07T18:41:59.292Z,75.73
2022-09-07T18:44:03.660Z,69.72
2022-09-07T18:46:13.825Z,68.35
2022-09-07T18:48:17.643Z,66.86
2022-09-07T18:50:21.649Z,68.08
2022-09-07T18:54:50.326Z,66.44
2022-09-07T18:56:58.086Z,60.89
2022-09-07T18:59:02.080Z,62.11
2022-09-07T19:01:12.972Z,60.28
2022-09-07T19:03:16.903Z,58.38
2022-09-07T19:07:44.274Z,61.71
2022-09-07T19:09:49.283Z,64.46
2022-09-07T19:11:53.452Z,61.48
2022-09-07T19:13:58.252Z,63.24
2022-09-07T19:16:09.281Z,59.33
2022-09-07T19:18:13.189Z,57.15
2022-09-07T19:20:17.481Z,59.30
2022-09-07T19:22:21.502Z,59.99
2022-09-07T19:24:26.729Z,60.90
2022-09-07T19:26:32.266Z,60.38
2022-09-07T19:28:36.474Z,57.06
2022-09-07T19:30:42.461Z,58.89
2022-09-07T19:32:47.684Z,57.95
2022-09-07T19:34:57.032Z,57.36
2022-09-07T19:37:01.480Z,58.22
2022-09-07T19:39:06.531Z,55.74
2022-09-07T19:41:14.559Z,54.02
2022-09-07T19:43:18.424Z,52.34
2022-09-07T19:45:24.777Z,54.19
2022-09-07T19:47:28.415Z,59.11
2022-09-07T19:49:32.133Z,58.20
2022-09-07T19:51:36.888Z,54.12
2022-09-07T19:53:44.689Z,54.29
2022-09-07T19:55:48.534Z,58.52
2022-09-07T19:57:53.576Z,55.41
2022-09-07T19:59:58.415Z,55.94
2022-09-07T20:02:02.116Z,55.51
2022-09-07T20:04:07.997Z,55.69
2022-09-07T20:06:15.810Z,56.86
2022-09-07T20:08:19.845Z,55.59
2022-09-07T20:10:23.511Z,55.23
2022-09-07T20:12:27.730Z,55.32
2022-09-07T20:14:31.595Z,50.59
2022-09-07T20:16:40.412Z,51.86
2022-09-07T20:18:44.924Z,50.00
2022-09-07T20:20:48.441Z,51.95
2022-09-07T20:22:52.401Z,52.25
2022-09-07T20:24:59.243Z,47.93
2022-09-07T20:27:06.193Z,48.71
2022-09-07T20:29:27.236Z,47.72
2022-09-07T20:31:32.521Z,47.79
2022-09-07T20:33:40.299Z,47.24
2022-09-07T20:35:48.813Z,46.08
2022-09-07T20:37:52.856Z,46.60
2022-09-07T20:39:56.690Z,47.45
2022-09-07T20:42:00.562Z,47.66
2022-09-07T20:44:07.558Z,45.43
2022-09-07T20:46:11.207Z,45.81
2022-09-07T20:48:15.443Z,43.73
2022-09-07T20:50:19.194Z,42.84
2022-09-07T20:52:22.880Z,43.59
2022-09-07T20:54:26.729Z,42.14
2022-09-07T20:56:30.875Z,44.04
2022-09-07T20:58:35.096Z,41.02
2022-09-07T21:00:38.786Z,40.15
2022-09-07T21:02:42.738Z,41.06
2022-09-07T21:04:46.672Z,40.41
2022-09-07T21:06:50.857Z,40.87
2022-09-07T21:08:55.604Z,40.63
2022-09-07T21:10:59.295Z,38.87
2022-09-07T21:13:06.263Z,39.12
2022-09-07T21:15:10.862Z,37.71
2022-09-07T21:17:14.959Z,39.22
2022-09-07T21:19:18.691Z,40.20
2022-09-07T21:21:30.291Z,38.04
2022-09-07T21:23:35.359Z,39.09
2022-09-07T21:25:45.319Z,36.79
2022-09-07T21:27:49.520Z,38.35
2022-09-07T21:29:53.505Z,36.78
2022-09-07T21:31:57.891Z,36.58
2022-09-07T21:34:02.908Z,35.80
2022-09-07T21:36:08.264Z,37.04
2022-09-07T21:38:15.618Z,36.90
2022-09-07T21:40:19.790Z,36.94
2022-09-07T21:42:23.416Z,38.89
2022-09-07T21:44:29.038Z,38.69
2022-09-07T21:46:33.617Z,40.64
2022-09-07T21:48:37.320Z,37.66
2022-09-07T21:50:41.266Z,37.58
2022-09-07T21:52:44.976Z,37.06
2022-09-07T21:54:51.639Z,36.41
2022-09-07T21:56:55.561Z,38.67
2022-09-07T21:59:02.220Z,38.90
2022-09-07T22:01:17.898Z,38.68
2022-09-07T22:03:24.775Z,39.88
2022-09-07T22:05:28.511Z,40.91
2022-09-07T22:07:33.250Z,38.55
2022-09-07T22:09:37.437Z,37.36
2022-09-07T22:11:45.409Z,39.13
2022-09-07T22:13:49.482Z,37.11
2022-09-07T22:15:53.377Z,36.77
2022-09-07T22:17:57.334Z,36.12
2022-09-07T22:20:01.925Z,37.25
2022-09-07T22:22:05.633Z,36.35
2022-09-07T22:24:10.293Z,37.63
2022-09-07T22:26:15.962Z,36.92
2022-09-07T22:28:20.292Z,34.54
2022-09-07T22:30:24.445Z,36.19
2022-09-07T22:32:28.990Z,36.05
2022-09-07T22:34:32.742Z,36.51
2022-09-07T22:36:43.379Z,36.67
2022-09-07T22:38:48.228Z,36.40
2022-09-07T22:40:52.422Z,36.16
2022-09-07T22:42:56.997Z,35.75
2022-09-07T22:45:01.989Z,37.09
2022-09-07T22:47:06.378Z,36.08
2022-09-07T22:49:19.240Z,37.77
2022-09-07T22:51:23.089Z,37.89
2022-09-07T22:53:31.647Z,36.97
2022-09-07T22:55:41.427Z,37.63
2022-09-07T22:57:47.475Z,37.50
2022-09-07T22:59:52.768Z,38.23
2022-09-07T23:01:56.832Z,39.04
2022-09-07T23:04:01.408Z,40.70
2022-09-07T23:06:09.065Z,41.49
2022-09-07T23:08:13.602Z,42.43
2022-09-07T23:10:18.655Z,43.30
2022-09-07T23:12:22.797Z,45.10
2022-09-07T23:14:27.332Z,46.16
2022-09-07T23:16:31.892Z,47.70
2022-09-07T23:18:37.090Z,47.57
2022-09-07T23:20:44.132Z,48.24
2022-09-07T23:22:48.699Z,49.67
2022-09-07T23:24:53.672Z,49.93
2022-09-07T23:26:57.952Z,49.94
2022-09-07T23:29:03.077Z,51.54
2022-09-07T23:31:11.294Z,52.08
2022-09-07T23:33:15.376Z,52.47
2022-09-07T23:35:19.458Z,51.44
2022-09-07T23:37:24.013Z,52.31
2022-09-07T23:39:28.777Z,54.30
2022-09-07T23:41:33.956Z,53.78
2022-09-07T23:43:38.786Z,54.86
2022-09-07T23:45:44.056Z,55.78
2022-09-07T23:47:55.029Z,56.49
2022-09-07T23:49:59.128Z,55.71
2022-09-07T23:52:03.470Z,56.10
2022-09-07T23:54:08.116Z,57.37
2022-09-07T23:56:12.739Z,57.51
2022-09-07T23:58:19.515Z,57.78
